createdAt,value
2023-11-12T00:00:18.822Z,5.30
2023-11-12T00:03:06.858Z,5.10
2023-11-12T00:05:35.420Z,2.10
2023-11-12T00:08:03.301Z,1.90
2023-11-12T00:10:32.382Z,2.90
2023-11-12T00:13:00.621Z,2.00
2023-11-12T00:15:28.666Z,2.00
2023-11-12T00:17:56.526Z,4.20
2023-11-12T00:20:26.732Z,2.20
2023-11-12T00:22:55.790Z,2.00
2023-11-12T00:25:23.761Z,1.90
2023-11-12T00:27:51.785Z,2.00
2023-11-12T00:30:19.794Z,3.50
2023-11-12T00:32:47.779Z,2.20
2023-11-12T00:35:16.021Z,2.00
2023-11-12T00:37:44.100Z,2.10
2023-11-12T00:40:15.392Z,2.00
2023-11-12T00:42:43.492Z,1.30
2023-11-12T00:45:11.520Z,2.10
2023-11-12T00:47:39.431Z,2.30
2023-11-12T00:50:09.865Z,1.70
2023-11-12T00:52:37.902Z,2.00
2023-11-12T00:55:07.832Z,1.90
2023-11-12T00:57:39.033Z,2.10
2023-11-12T01:00:08.700Z,1.90
2023-11-12T01:02:36.875Z,2.20
2023-11-12T01:05:06.283Z,2.10
2023-11-12T01:07:34.325Z,2.00
2023-11-12T01:10:02.256Z,2.50
2023-11-12T01:12:30.392Z,2.50
2023-11-12T01:14:58.370Z,2.40
2023-11-12T01:17:26.474Z,2.00
2023-11-12T01:19:54.644Z,2.90
2023-11-12T01:22:22.635Z,2.70
2023-11-12T01:24:50.722Z,2.40
2023-11-12T01:27:18.529Z,2.00
2023-11-12T01:29:46.779Z,2.30
2023-11-12T01:32:15.237Z,1.90
2023-11-12T01:34:43.313Z,2.80
2023-11-12T01:37:11.235Z,2.80
2023-11-12T01:39:39.275Z,1.80
2023-11-12T01:42:13.076Z,2.90
2023-11-12T01:44:43.418Z,2.40
2023-11-12T01:47:14.028Z,2.00
2023-11-12T01:49:42.277Z,2.70
2023-11-12T01:52:12.640Z,2.20
2023-11-12T01:54:41.954Z,2.30
2023-11-12T01:57:11.289Z,2.10
2023-11-12T01:59:40.137Z,2.30
2023-11-12T02:02:08.860Z,2.00
2023-11-12T02:04:37.922Z,2.00
2023-11-12T02:07:06.345Z,1.80
2023-11-12T02:09:34.580Z,1.90
2023-11-12T02:12:02.996Z,2.50
2023-11-12T02:14:32.798Z,2.50
2023-11-12T02:17:01.056Z,2.60
2023-11-12T02:19:30.953Z,1.90
2023-11-12T02:21:59.477Z,2.10
2023-11-12T02:24:27.426Z,2.20
2023-11-12T02:26:55.660Z,2.00
2023-11-12T02:29:23.626Z,2.20
2023-11-12T02:31:51.609Z,2.10
2023-11-12T02:34:19.617Z,2.60
2023-11-12T02:36:47.628Z,2.00
2023-11-12T02:39:15.952Z,2.00
2023-11-12T02:41:45.669Z,2.10
2023-11-12T02:44:16.045Z,2.20
2023-11-12T02:46:44.033Z,2.10
2023-11-12T02:49:24.727Z,3.50
2023-11-12T02:51:52.633Z,2.30
2023-11-12T02:54:20.589Z,2.60
2023-11-12T02:56:48.584Z,2.80
2023-11-12T02:59:16.474Z,2.80
2023-11-12T03:01:44.896Z,2.00
2023-11-12T03:04:12.952Z,3.10
2023-11-12T03:06:41.617Z,2.10
2023-11-12T03:09:10.829Z,2.10
2023-11-12T03:11:39.187Z,2.90
2023-11-12T03:14:09.578Z,2.60
2023-11-12T03:16:37.641Z,2.00
2023-11-12T03:19:05.636Z,2.20
2023-11-12T03:21:34.160Z,2.10
2023-11-12T03:24:02.403Z,2.30
2023-11-12T03:26:30.233Z,4.80
2023-11-12T03:28:58.136Z,4.60
2023-11-12T03:31:27.203Z,2.50
2023-11-12T03:33:55.058Z,2.20
2023-11-12T03:36:23.103Z,2.10
2023-11-12T03:38:50.928Z,2.20
2023-11-12T03:41:18.848Z,2.50
2023-11-12T03:43:47.296Z,2.20
2023-11-12T03:46:15.410Z,2.50
2023-11-12T03:48:44.133Z,2.90
2023-11-12T03:51:12.214Z,3.60
2023-11-12T03:53:40.699Z,4.10
2023-11-12T03:56:08.841Z,2.80
2023-11-12T03:58:36.995Z,2.70
2023-11-12T04:01:05.382Z,2.50
2023-11-12T04:03:33.440Z,2.60
2023-11-12T04:06:02.038Z,4.20
2023-11-12T04:08:29.900Z,2.70
2023-11-12T04:10:57.967Z,2.20
2023-11-12T04:13:25.860Z,2.30
2023-11-12T04:15:54.085Z,8.10
2023-11-12T04:18:22.133Z,3.20
2023-11-12T04:20:50.087Z,2.90
2023-11-12T04:23:18.165Z,3.20
2023-11-12T04:25:49.139Z,3.50
2023-11-12T04:28:17.014Z,3.00
2023-11-12T04:30:45.013Z,3.00
2023-11-12T04:33:13.017Z,2.70
2023-11-12T04:35:40.858Z,2.70
2023-11-12T04:38:09.070Z,2.70
2023-11-12T04:40:36.850Z,3.10
2023-11-12T04:43:04.807Z,2.90
2023-11-12T04:45:32.634Z,3.20
2023-11-12T04:48:00.580Z,3.00
2023-11-12T04:50:29.941Z,4.40
2023-11-12T04:52:57.935Z,3.10
2023-11-12T04:55:25.822Z,2.70
2023-11-12T04:57:54.226Z,4.50
2023-11-12T05:00:23.581Z,2.90
2023-11-12T05:02:52.823Z,2.30
2023-11-12T05:05:20.612Z,3.80
2023-11-12T05:07:50.205Z,2.30
2023-11-12T05:10:18.056Z,2.80
2023-11-12T05:12:47.025Z,3.40
2023-11-12T05:15:15.173Z,2.90
2023-11-12T05:17:43.083Z,2.40
2023-11-12T05:20:11.562Z,2.80
2023-11-12T05:22:39.490Z,5.20
2023-11-12T05:25:07.705Z,2.40
2023-11-12T05:27:36.085Z,3.30
2023-11-12T05:30:04.603Z,3.20
2023-11-12T05:32:32.521Z,8.90
2023-11-12T05:35:00.547Z,2.70
2023-11-12T05:37:28.863Z,2.80
2023-11-12T05:39:56.741Z,3.00
2023-11-12T05:42:24.918Z,2.70
2023-11-12T05:44:53.454Z,3.10
2023-11-12T05:47:21.356Z,2.80
2023-11-12T05:49:49.235Z,4.40
2023-11-12T05:52:17.403Z,2.70
2023-11-12T05:54:45.415Z,3.00
2023-11-12T05:57:13.435Z,3.90
2023-11-12T05:59:41.324Z,2.50
2023-11-12T06:02:09.734Z,3.40
2023-11-12T06:04:38.018Z,3.50
2023-11-12T06:07:06.007Z,3.50
2023-11-12T06:09:34.011Z,3.70
2023-11-12T06:12:06.277Z,3.40
2023-11-12T06:14:36.785Z,3.10
2023-11-12T06:17:05.719Z,5.40
2023-11-12T06:19:34.085Z,2.90
2023-11-12T06:22:02.715Z,3.60
2023-11-12T06:24:31.057Z,4.00
2023-11-12T06:26:58.999Z,3.00
2023-11-12T06:29:26.984Z,4.10
2023-11-12T06:31:54.908Z,3.10
2023-11-12T06:34:23.175Z,3.10
2023-11-12T06:36:51.071Z,3.00
2023-11-12T06:39:19.024Z,3.90
2023-11-12T06:41:46.956Z,6.40
2023-11-12T06:44:14.975Z,3.40
2023-11-12T06:46:46.461Z,2.80
2023-11-12T06:49:14.951Z,5.10
2023-11-12T06:51:43.640Z,2.50
2023-11-12T06:54:11.986Z,2.50
2023-11-12T06:56:39.885Z,4.20
2023-11-12T06:59:07.896Z,2.60
2023-11-12T07:01:38.748Z,2.50
2023-11-12T07:04:08.040Z,2.60
2023-11-12T07:06:36.264Z,3.90
2023-11-12T07:09:05.410Z,3.00
2023-11-12T07:11:33.226Z,2.60
2023-11-12T07:14:01.559Z,2.70
2023-11-12T07:16:29.855Z,2.50
2023-11-12T07:18:58.371Z,2.70
2023-11-12T07:21:31.501Z,3.50
2023-11-12T07:24:00.670Z,2.80
2023-11-12T07:26:28.925Z,2.60
2023-11-12T07:28:56.924Z,3.30
2023-11-12T07:31:25.786Z,2.60
2023-11-12T07:33:54.289Z,3.60
2023-11-12T07:36:22.960Z,2.70
2023-11-12T07:38:51.798Z,3.40
2023-11-12T07:41:20.817Z,6.10
2023-11-12T07:43:48.842Z,2.70
2023-11-12T07:46:17.568Z,3.20
2023-11-12T07:48:45.692Z,3.40
2023-11-12T07:51:13.886Z,3.60
2023-11-12T07:53:41.722Z,3.10
2023-11-12T07:56:12.733Z,3.10
2023-11-12T08:01:08.554Z,2.90
2023-11-12T08:03:36.630Z,2.50
2023-11-12T08:06:04.844Z,3.50
2023-11-12T08:08:32.689Z,5.60
2023-11-12T08:11:03.603Z,3.00
2023-11-12T08:13:31.535Z,3.30
2023-11-12T08:15:59.651Z,3.40
2023-11-12T08:18:27.659Z,2.70
2023-11-12T08:20:56.240Z,4.20
2023-11-12T08:23:24.395Z,2.80
2023-11-12T08:25:52.253Z,4.30
2023-11-12T08:28:23.497Z,3.90
2023-11-12T08:30:51.974Z,3.50
2023-11-12T08:33:20.138Z,2.80
2023-11-12T08:35:48.083Z,3.30
2023-11-12T08:38:16.131Z,3.70
2023-11-12T08:40:45.933Z,2.80
2023-11-12T08:43:15.953Z,4.40
2023-11-12T08:45:44.161Z,3.10
2023-11-12T08:48:12.359Z,3.20
2023-11-12T08:50:41.029Z,2.70
2023-11-12T08:53:08.926Z,3.70
2023-11-12T08:55:36.904Z,5.90
2023-11-12T08:58:04.826Z,29.20
2023-11-12T09:00:33.506Z,3.40
2023-11-12T09:03:01.561Z,3.50
2023-11-12T09:05:32.841Z,3.10
2023-11-12T09:08:02.648Z,4.70
2023-11-12T09:10:30.685Z,6.40
2023-11-12T09:12:58.863Z,5.80
2023-11-12T09:15:26.810Z,3.50
2023-11-12T09:17:55.640Z,6.50
2023-11-12T09:20:23.937Z,7.60
2023-11-12T09:22:51.923Z,3.50
2023-11-12T09:25:20.005Z,3.60
2023-11-12T09:27:47.845Z,3.90
2023-11-12T09:30:16.048Z,6.10
2023-11-12T09:32:44.188Z,3.10
2023-11-12T09:35:12.457Z,7.10
2023-11-12T09:37:40.377Z,4.00
2023-11-12T09:40:09.726Z,2.90
2023-11-12T09:42:53.246Z,3.80
2023-11-12T09:45:21.388Z,5.10
2023-11-12T09:47:55.616Z,2.90
2023-11-12T09:50:25.472Z,3.30
2023-11-12T09:52:54.774Z,4.60
2023-11-12T09:55:23.062Z,5.50
2023-11-12T09:57:53.023Z,3.20
2023-11-12T10:00:21.433Z,3.90
2023-11-12T10:02:50.268Z,2.90
2023-11-12T10:05:18.460Z,3.30
2023-11-12T10:07:47.576Z,3.60
2023-11-12T10:10:27.714Z,2.70
2023-11-12T10:12:56.012Z,2.80
2023-11-12T10:15:29.372Z,6.40
2023-11-12T10:18:01.101Z,4.00
2023-11-12T10:20:41.424Z,2.80
2023-11-12T10:23:32.643Z,2.80
2023-11-12T10:26:03.453Z,2.50
2023-11-12T10:28:35.698Z,4.00
2023-11-12T10:31:04.335Z,2.30
2023-11-12T10:33:32.642Z,2.50
2023-11-12T10:36:09.112Z,3.20
2023-11-12T10:38:48.969Z,2.60
2023-11-12T10:41:17.300Z,3.20
2023-11-12T10:43:58.541Z,4.30
2023-11-12T10:46:26.996Z,3.20
2023-11-12T10:48:57.116Z,3.70
2023-11-12T10:51:27.181Z,4.30
2023-11-12T10:54:00.135Z,3.00
2023-11-12T10:56:28.507Z,2.20
2023-11-12T10:58:57.664Z,3.30
2023-11-12T11:01:27.303Z,5.40
2023-11-12T11:03:56.798Z,2.10
2023-11-12T11:06:26.055Z,2.80
2023-11-12T11:08:54.774Z,3.10
2023-11-12T11:11:23.582Z,2.10
2023-11-12T11:13:51.474Z,2.70
2023-11-12T11:16:47.436Z,2.30
2023-11-12T11:19:15.901Z,2.20
2023-11-12T11:22:22.392Z,2.50
2023-11-12T11:24:50.765Z,2.90
2023-11-12T11:27:20.753Z,2.50
2023-11-12T11:30:07.709Z,2.60
2023-11-12T11:32:37.052Z,3.00
2023-11-12T11:35:18.571Z,3.40
2023-11-12T11:38:08.952Z,2.90
2023-11-12T11:40:38.407Z,2.50
2023-11-12T11:43:24.802Z,3.80
2023-11-12T11:46:12.946Z,2.30
2023-11-12T11:48:44.276Z,2.50
2023-11-12T11:51:35.054Z,2.30
2023-11-12T11:54:07.447Z,3.30
2023-11-12T11:56:35.477Z,2.40
2023-11-12T11:59:04.178Z,2.90
2023-11-12T12:01:45.416Z,2.50
2023-11-12T12:04:15.149Z,11.40
2023-11-12T12:06:48.421Z,2.60
2023-11-12T12:09:20.331Z,4.50
2023-11-12T12:11:52.990Z,4.40
2023-11-12T12:14:23.072Z,2.50
2023-11-12T12:16:51.713Z,3.50
2023-11-12T12:19:23.405Z,2.30
2023-11-12T12:21:53.549Z,2.60
2023-11-12T12:26:51.547Z,3.60
2023-11-12T12:29:24.519Z,3.50
2023-11-12T12:31:55.818Z,3.90
2023-11-12T12:34:26.310Z,2.50
2023-11-12T12:40:02.502Z,2.30
2023-11-12T12:42:32.127Z,2.20
2023-11-12T12:45:00.206Z,2.50
2023-11-12T12:47:36.927Z,4.00
2023-11-12T12:50:33.906Z,4.90
2023-11-12T12:53:16.338Z,2.30
2023-11-12T12:55:45.616Z,3.90
2023-11-12T12:58:13.857Z,2.30
2023-11-12T13:00:44.561Z,2.80
2023-11-12T13:03:28.228Z,3.00
2023-11-12T13:05:58.872Z,3.00
2023-11-12T13:08:28.978Z,3.70
2023-11-12T13:10:57.022Z,3.70
2023-11-12T13:13:26.693Z,5.20
2023-11-12T13:15:55.250Z,3.30
2023-11-12T13:18:25.035Z,2.50
2023-11-12T13:20:52.965Z,6.00
2023-11-12T13:23:21.426Z,3.80
2023-11-12T13:25:51.247Z,2.70
2023-11-12T13:28:19.296Z,2.90
2023-11-12T13:30:48.863Z,2.60
2023-11-12T13:33:17.508Z,2.70
2023-11-12T13:35:46.433Z,3.00
2023-11-12T13:38:14.555Z,2.70
2023-11-12T13:40:42.503Z,2.30
2023-11-12T13:43:10.999Z,3.50
2023-11-12T13:45:40.171Z,2.10
2023-11-12T13:48:10.190Z,4.70
2023-11-12T13:50:39.266Z,4.80
2023-11-12T13:53:12.974Z,2.20
2023-11-12T13:55:42.775Z,10.20
2023-11-12T13:58:12.809Z,3.30
2023-11-12T14:00:43.205Z,1.90
2023-11-12T14:03:12.022Z,2.30
2023-11-12T14:05:41.257Z,3.50
2023-11-12T14:08:13.017Z,1.70
2023-11-12T14:10:41.775Z,1.60
2023-11-12T14:13:11.087Z,3.00
2023-11-12T14:15:40.750Z,6.20
2023-11-12T14:18:09.257Z,5.50
2023-11-12T14:20:37.600Z,2.00
2023-11-12T14:23:07.578Z,2.00
2023-11-12T14:25:35.804Z,2.10
2023-11-12T14:28:04.904Z,2.70
2023-11-12T14:30:38.833Z,2.80
2023-11-12T14:33:08.341Z,3.20
2023-11-12T14:35:36.250Z,5.40
2023-11-12T14:38:04.279Z,4.30
2023-11-12T14:40:32.225Z,3.60
2023-11-12T14:43:01.324Z,5.60
2023-11-12T14:45:31.379Z,4.30
2023-11-12T14:48:01.350Z,6.40
2023-11-12T14:50:31.190Z,6.20
2023-11-12T14:52:59.419Z,7.80
2023-11-12T14:55:29.034Z,9.50
2023-11-12T14:57:58.353Z,10.10
2023-11-12T15:00:31.042Z,10.60
2023-11-12T15:03:01.539Z,11.80
2023-11-12T15:05:29.963Z,7.70
2023-11-12T15:07:58.247Z,6.90
2023-11-12T15:10:26.331Z,8.10
2023-11-12T15:12:54.377Z,9.70
2023-11-12T15:15:22.997Z,7.90
2023-11-12T15:17:54.613Z,11.60
2023-11-12T15:20:23.374Z,8.30
2023-11-12T15:22:52.430Z,6.80
2023-11-12T15:25:21.317Z,5.30
2023-11-12T15:27:50.346Z,8.00
2023-11-12T15:30:20.750Z,9.00
2023-11-12T15:32:50.297Z,9.90
2023-11-12T15:35:19.744Z,8.60
2023-11-12T15:37:48.167Z,10.30
2023-11-12T15:40:20.366Z,12.10
2023-11-12T15:42:55.549Z,8.30
2023-11-12T15:45:26.915Z,8.40
2023-11-12T15:47:55.971Z,7.50
2023-11-12T15:50:27.070Z,6.70
2023-11-12T15:52:55.308Z,5.40
2023-11-12T15:55:23.514Z,6.80
2023-11-12T15:57:51.359Z,5.20
2023-11-12T16:00:19.764Z,6.40
2023-11-12T16:02:51.284Z,8.70
2023-11-12T16:05:21.243Z,7.70
2023-11-12T16:07:49.758Z,10.10
2023-11-12T16:10:17.704Z,10.60
2023-11-12T16:12:45.785Z,9.20
2023-11-12T16:15:16.832Z,5.20
2023-11-12T16:17:47.133Z,7.60
2023-11-12T16:20:16.587Z,6.80
2023-11-12T16:22:48.006Z,9.00
2023-11-12T16:25:17.938Z,6.60
2023-11-12T16:27:46.249Z,6.50
2023-11-12T16:30:14.738Z,5.30
2023-11-12T16:32:43.173Z,4.60
2023-11-12T16:35:12.375Z,4.80
2023-11-12T16:37:49.889Z,5.30
2023-11-12T16:40:20.016Z,3.80
2023-11-12T16:45:18.674Z,4.00
2023-11-12T16:47:47.517Z,7.20
2023-11-12T16:50:17.093Z,9.50
2023-11-12T16:52:45.228Z,11.00
2023-11-12T16:55:13.598Z,9.20
2023-11-12T16:57:44.302Z,12.00
2023-11-12T17:00:13.540Z,7.50
2023-11-12T17:02:43.356Z,10.20
2023-11-12T17:05:13.198Z,10.20
2023-11-12T17:07:42.516Z,8.50
2023-11-12T17:10:10.869Z,6.70
2023-11-12T17:12:39.230Z,5.90
2023-11-12T17:15:10.161Z,12.00
2023-11-12T17:17:38.966Z,10.90
2023-11-12T17:20:07.437Z,14.50
2023-11-12T17:22:35.428Z,14.10
2023-11-12T17:25:04.220Z,13.70
2023-11-12T17:27:32.320Z,14.40
2023-11-12T17:30:02.294Z,14.50
2023-11-12T17:32:30.148Z,17.80
2023-11-12T17:34:58.224Z,16.70
2023-11-12T17:37:27.209Z,13.70
2023-11-12T17:39:59.320Z,11.20
2023-11-12T17:42:29.149Z,11.70
2023-11-12T17:44:58.645Z,10.70
2023-11-12T17:47:27.430Z,10.60
2023-11-12T17:50:00.704Z,15.50
2023-11-12T17:52:35.808Z,13.60
2023-11-12T17:55:04.042Z,14.70
2023-11-12T17:57:36.239Z,11.90
2023-11-12T18:00:11.842Z,11.60
2023-11-12T18:02:40.844Z,12.20
2023-11-12T18:05:10.054Z,12.10
2023-11-12T18:07:42.320Z,11.70
2023-11-12T18:10:12.757Z,13.00
2023-11-12T18:12:42.841Z,10.20
2023-11-12T18:15:14.972Z,7.10
2023-11-12T18:17:43.858Z,9.20
2023-11-12T18:20:15.417Z,14.10
2023-11-12T18:22:44.207Z,8.90
2023-11-12T18:25:12.764Z,10.10
2023-11-12T18:27:42.736Z,8.10
2023-11-12T18:30:12.803Z,11.80
2023-11-12T18:32:48.439Z,8.80
2023-11-12T18:35:18.520Z,7.10
2023-11-12T18:37:48.597Z,9.80
2023-11-12T18:40:21.812Z,13.00
2023-11-12T18:45:23.891Z,9.10
2023-11-12T18:47:53.904Z,6.10
2023-11-12T18:50:27.858Z,5.40
2023-11-12T18:52:58.287Z,11.50
2023-11-12T18:57:59.471Z,4.30
2023-11-12T19:00:28.488Z,7.80
2023-11-12T19:03:00.668Z,7.90
2023-11-12T19:05:30.014Z,6.90
2023-11-12T19:07:58.710Z,5.50
2023-11-12T19:10:31.227Z,5.20
2023-11-12T19:12:59.513Z,6.70
2023-11-12T19:15:31.210Z,5.50
2023-11-12T19:17:59.463Z,6.50
2023-11-12T19:20:34.060Z,7.50
2023-11-12T19:23:02.205Z,12.10
2023-11-12T19:25:31.139Z,8.50
2023-11-12T19:28:01.248Z,8.20
2023-11-12T19:30:31.201Z,5.60
2023-11-12T19:33:03.232Z,8.90
2023-11-12T19:35:32.144Z,7.90
2023-11-12T19:38:03.495Z,10.30
2023-11-12T19:40:34.408Z,10.00
2023-11-12T19:43:03.749Z,10.00
2023-11-12T19:45:32.086Z,11.80
2023-11-12T19:48:00.326Z,10.00
2023-11-12T19:50:28.536Z,9.20
2023-11-12T19:52:57.982Z,10.70
2023-11-12T19:55:28.962Z,10.50
2023-11-12T19:57:57.209Z,12.60
2023-11-12T20:00:25.365Z,15.30
2023-11-12T20:02:54.119Z,16.40
2023-11-12T20:05:25.257Z,15.40
2023-11-12T20:08:01.252Z,19.40
2023-11-12T20:10:29.560Z,12.70
2023-11-12T20:13:00.035Z,15.70
2023-11-12T20:15:28.820Z,17.50
2023-11-12T20:17:58.831Z,16.00
2023-11-12T20:20:27.647Z,13.70
2023-11-12T20:22:58.652Z,14.40
2023-11-12T20:25:26.947Z,15.70
2023-11-12T20:27:55.074Z,13.40
2023-11-12T20:30:29.464Z,15.10
2023-11-12T20:32:58.185Z,11.50
2023-11-12T20:35:28.690Z,14.90
2023-11-12T20:38:00.332Z,16.90
2023-11-12T20:42:57.611Z,15.80
2023-11-12T20:45:27.874Z,15.40
2023-11-12T20:47:59.631Z,20.20
2023-11-12T20:50:28.888Z,15.50
2023-11-12T20:52:57.005Z,28.80
2023-11-12T20:55:25.957Z,24.60
2023-11-12T20:57:54.740Z,29.60
2023-11-12T21:00:23.035Z,23.80
2023-11-12T21:02:52.950Z,28.40
2023-11-12T21:05:22.238Z,31.50
2023-11-12T21:07:51.227Z,35.30
2023-11-12T21:10:22.834Z,25.30
2023-11-12T21:12:51.932Z,26.10
2023-11-12T21:15:21.031Z,29.70
2023-11-12T21:17:50.265Z,26.30
2023-11-12T21:20:18.910Z,25.10
2023-11-12T21:22:47.975Z,30.20
2023-11-12T21:25:21.449Z,29.80
2023-11-12T21:27:50.953Z,28.80
2023-11-12T21:30:27.258Z,29.80
2023-11-12T21:32:59.039Z,21.60
2023-11-12T21:35:28.172Z,24.90
2023-11-12T21:37:58.427Z,21.70
2023-11-12T21:40:27.183Z,28.80
2023-11-12T21:42:55.582Z,24.30
2023-11-12T21:45:28.600Z,28.50
2023-11-12T21:47:57.797Z,24.20
2023-11-12T21:50:27.173Z,27.80
2023-11-12T21:52:58.504Z,23.60
2023-11-12T21:55:32.158Z,26.00
2023-11-12T21:58:02.043Z,20.70
2023-11-12T22:00:30.633Z,20.80
2023-11-12T22:03:00.023Z,22.40
2023-11-12T22:05:29.395Z,22.10
2023-11-12T22:07:57.865Z,26.40
2023-11-12T22:10:26.603Z,23.70
2023-11-12T22:12:56.747Z,28.20
2023-11-12T22:15:25.229Z,32.90
2023-11-12T22:17:53.584Z,88.90
2023-11-12T22:20:22.532Z,72.70
2023-11-12T22:22:50.896Z,87.00
2023-11-12T22:25:20.184Z,119.20
2023-11-12T22:27:49.918Z,90.60
2023-11-12T22:30:20.092Z,75.10
2023-11-12T22:32:48.967Z,63.80
2023-11-12T22:35:18.060Z,49.10
2023-11-12T22:37:46.537Z,52.30
2023-11-12T22:40:15.193Z,42.00
2023-11-12T22:42:44.296Z,35.30
2023-11-12T22:45:14.186Z,28.20
2023-11-12T22:47:43.427Z,26.90
2023-11-12T22:50:18.592Z,27.80
2023-11-12T22:52:47.052Z,22.80
2023-11-12T22:55:15.301Z,20.30
2023-11-12T22:57:45.077Z,25.10
2023-11-12T23:02:59.070Z,21.40
